createdAt,value
2022-10-12T00:00:30.805Z,21.40
2022-10-12T00:03:32.820Z,20.23
2022-10-12T00:06:34.393Z,22.67
2022-10-12T00:09:36.002Z,17.43
2022-10-12T00:12:37.696Z,20.87
2022-10-12T00:15:39.695Z,23.70
2022-10-12T00:18:41.268Z,21.97
2022-10-12T00:21:43.051Z,20.73
2022-10-12T00:24:44.607Z,20.20
2022-10-12T00:27:46.473Z,20.87
2022-10-12T00:30:48.049Z,19.40
2022-10-12T00:33:49.763Z,20.57
2022-10-12T00:36:51.390Z,26.53
2022-10-12T00:39:53.009Z,22.10
2022-10-12T00:42:54.636Z,21.40
2022-10-12T00:45:56.765Z,21.50
2022-10-12T00:49:00.009Z,23.33
2022-10-12T00:52:05.102Z,18.87
2022-10-12T00:55:07.939Z,23.23
2022-10-12T00:58:10.072Z,21.03
2022-10-12T01:01:11.942Z,22.80
2022-10-12T01:04:13.833Z,19.30
2022-10-12T01:07:15.428Z,25.13
2022-10-12T01:10:17.010Z,22.83
2022-10-12T01:13:18.606Z,20.30
2022-10-12T01:16:23.029Z,21.93
2022-10-12T01:19:30.387Z,23.23
2022-10-12T01:22:34.463Z,18.87
2022-10-12T01:25:54.902Z,21.70
2022-10-12T01:28:59.325Z,18.73
2022-10-12T01:32:00.834Z,22.97
2022-10-12T01:35:14.429Z,23.80
2022-10-12T01:38:42.470Z,24.33
2022-10-12T01:41:48.810Z,20.07
2022-10-12T01:44:50.477Z,20.27
2022-10-12T01:47:53.812Z,24.17
2022-10-12T01:50:56.184Z,21.40
2022-10-12T01:54:29.959Z,21.47
2022-10-12T01:57:31.505Z,21.10
2022-10-12T02:00:35.670Z,22.37
2022-10-12T02:03:45.070Z,22.00
2022-10-12T02:06:49.879Z,18.43
2022-10-12T02:09:52.949Z,19.80
2022-10-12T02:12:54.911Z,25.70
2022-10-12T02:15:58.399Z,18.20
2022-10-12T02:19:00.462Z,20.17
2022-10-12T02:22:03.006Z,20.10
2022-10-12T02:25:06.171Z,22.27
2022-10-12T02:28:09.734Z,23.10
2022-10-12T02:31:20.661Z,21.27
2022-10-12T02:34:24.856Z,23.80
2022-10-12T02:37:26.362Z,20.27
2022-10-12T02:40:33.710Z,20.63
2022-10-12T02:43:38.357Z,21.57
2022-10-12T02:46:40.803Z,21.83
2022-10-12T02:49:44.109Z,24.27
2022-10-12T02:52:46.897Z,19.70
2022-10-12T02:55:49.807Z,16.70
2022-10-12T02:58:51.397Z,20.70
2022-10-12T03:01:52.978Z,19.73
2022-10-12T03:04:54.941Z,19.70
2022-10-12T03:07:56.518Z,18.67
2022-10-12T03:11:05.233Z,20.03
2022-10-12T03:14:06.856Z,18.70
2022-10-12T03:17:08.472Z,20.70
2022-10-12T03:20:10.340Z,18.20
2022-10-12T03:23:11.978Z,20.90
2022-10-12T03:26:13.576Z,21.33
2022-10-12T03:29:15.201Z,18.57
2022-10-12T03:32:16.966Z,18.70
2022-10-12T03:35:18.620Z,20.23
2022-10-12T03:38:20.306Z,18.67
2022-10-12T03:41:22.007Z,21.13
2022-10-12T03:44:23.699Z,21.07
2022-10-12T03:47:25.314Z,21.53
2022-10-12T03:50:26.878Z,22.93
2022-10-12T03:53:28.425Z,20.97
2022-10-12T03:56:30.044Z,21.90
2022-10-12T03:59:31.644Z,20.53
2022-10-12T04:02:33.240Z,22.23
2022-10-12T04:05:34.839Z,18.60
2022-10-12T04:08:36.465Z,18.43
2022-10-12T04:11:38.026Z,19.93
2022-10-12T04:14:39.777Z,19.63
2022-10-12T04:17:41.769Z,20.83
2022-10-12T04:20:43.488Z,20.73
2022-10-12T04:23:45.190Z,22.40
2022-10-12T04:26:46.837Z,27.93
2022-10-12T04:29:48.395Z,26.53
2022-10-12T04:32:50.279Z,18.73
2022-10-12T04:35:54.321Z,22.10
2022-10-12T04:39:00.677Z,23.03
2022-10-12T04:42:02.972Z,24.00
2022-10-12T04:45:04.807Z,21.37
2022-10-12T04:48:06.429Z,26.17
2022-10-12T04:51:08.016Z,26.23
2022-10-12T04:54:10.149Z,28.97
2022-10-12T04:57:11.772Z,23.27
2022-10-12T05:00:13.685Z,23.83
2022-10-12T05:03:15.271Z,24.63
2022-10-12T05:06:17.096Z,21.73
2022-10-12T05:09:18.795Z,20.93
2022-10-12T05:12:20.554Z,19.57
2022-10-12T05:15:22.181Z,21.33
2022-10-12T05:18:24.073Z,26.40
2022-10-12T05:21:25.624Z,23.13
2022-10-12T05:24:27.580Z,24.13
2022-10-12T05:27:29.142Z,23.93
2022-10-12T05:30:30.682Z,23.33
2022-10-12T05:33:32.347Z,21.17
2022-10-12T05:36:33.909Z,31.03
2022-10-12T05:39:37.242Z,37.77
2022-10-12T05:42:39.261Z,30.47
2022-10-12T05:45:41.115Z,42.93
2022-10-12T05:48:42.775Z,31.37
2022-10-12T05:51:44.676Z,28.33
2022-10-12T05:54:46.274Z,29.17
2022-10-12T05:57:52.030Z,29.27
2022-10-12T06:00:53.846Z,33.10
2022-10-12T06:03:55.572Z,30.73
2022-10-12T06:06:57.191Z,28.57
2022-10-12T06:09:58.844Z,32.07
2022-10-12T06:13:01.806Z,29.67
2022-10-12T06:16:03.630Z,34.77
2022-10-12T06:19:05.265Z,27.20
2022-10-12T06:22:07.727Z,31.97
2022-10-12T06:25:09.480Z,34.57
2022-10-12T06:28:11.150Z,28.47
2022-10-12T06:31:12.887Z,29.60
2022-10-12T06:34:14.457Z,29.90
2022-10-12T06:37:44.533Z,42.73
2022-10-12T06:40:37.627Z,29.03
2022-10-12T06:43:39.241Z,32.20
2022-10-12T06:46:40.895Z,24.27
2022-10-12T06:49:42.500Z,25.97
2022-10-12T06:52:44.132Z,23.90
2022-10-12T06:55:45.776Z,27.47
2022-10-12T06:58:47.419Z,24.10
2022-10-12T07:01:50.035Z,31.47
2022-10-12T07:04:52.409Z,27.50
2022-10-12T07:07:54.143Z,25.10
2022-10-12T07:11:00.274Z,30.97
2022-10-12T07:14:01.969Z,26.00
2022-10-12T07:17:03.541Z,25.37
2022-10-12T07:20:05.874Z,31.20
2022-10-12T07:23:07.470Z,29.90
2022-10-12T07:26:09.645Z,33.67
2022-10-12T07:29:11.278Z,31.47
2022-10-12T07:32:12.967Z,31.03
2022-10-12T07:35:14.555Z,27.80
2022-10-12T07:38:16.241Z,28.07
2022-10-12T07:41:18.151Z,29.47
2022-10-12T07:44:21.090Z,23.23
2022-10-12T07:47:22.877Z,30.17
2022-10-12T07:50:25.378Z,27.10
2022-10-12T07:53:26.969Z,26.63
2022-10-12T07:56:28.653Z,22.13
2022-10-12T07:59:30.214Z,30.07
2022-10-12T08:02:31.869Z,26.87
2022-10-12T08:05:33.445Z,25.07
2022-10-12T08:08:35.157Z,24.83
2022-10-12T08:11:40.525Z,20.17
2022-10-12T08:14:42.094Z,22.27
2022-10-12T08:17:43.777Z,19.37
2022-10-12T08:20:45.457Z,23.97
2022-10-12T08:23:47.220Z,21.43
2022-10-12T08:26:48.838Z,18.70
2022-10-12T08:29:50.427Z,23.80
2022-10-12T08:32:52.172Z,24.10
2022-10-12T08:35:53.833Z,22.30
2022-10-12T08:38:55.831Z,17.87
2022-10-12T08:42:09.749Z,19.20
2022-10-12T08:45:31.680Z,24.10
2022-10-12T08:48:45.264Z,23.67
2022-10-12T08:51:51.780Z,19.50
2022-10-12T08:54:53.495Z,19.30
2022-10-12T08:57:55.095Z,21.90
2022-10-12T09:01:16.654Z,23.03
2022-10-12T09:04:27.674Z,19.80
2022-10-12T09:07:31.024Z,20.47
2022-10-12T09:10:32.896Z,18.87
2022-10-12T09:13:37.558Z,17.80
2022-10-12T09:16:46.854Z,19.47
2022-10-12T09:19:48.878Z,16.60
2022-10-12T09:22:51.746Z,17.10
2022-10-12T09:25:59.060Z,19.10
2022-10-12T09:29:01.051Z,19.40
2022-10-12T09:32:11.134Z,20.03
2022-10-12T09:35:13.685Z,23.23
2022-10-12T09:38:15.669Z,21.17
2022-10-12T09:41:23.389Z,18.40
2022-10-12T09:44:34.296Z,17.67
2022-10-12T09:47:35.900Z,18.87
2022-10-12T09:50:49.852Z,20.03
2022-10-12T09:53:56.721Z,21.00
2022-10-12T09:56:59.313Z,16.17
2022-10-12T10:00:08.618Z,15.70
2022-10-12T10:03:26.671Z,16.47
2022-10-12T10:06:30.844Z,15.77
2022-10-12T10:09:33.885Z,17.57
2022-10-12T10:12:39.258Z,16.87
2022-10-12T10:15:42.621Z,13.63
2022-10-12T10:18:48.616Z,13.43
2022-10-12T10:21:50.544Z,16.77
2022-10-12T10:25:00.167Z,17.63
2022-10-12T10:28:10.303Z,18.97
2022-10-12T10:31:17.060Z,13.50
2022-10-12T10:34:18.661Z,16.73
2022-10-12T10:37:22.815Z,15.03
2022-10-12T10:40:26.365Z,14.37
2022-10-12T10:43:29.431Z,18.70
2022-10-12T10:46:32.867Z,15.37
2022-10-12T10:49:37.684Z,14.33
2022-10-12T10:52:40.529Z,14.40
2022-10-12T10:55:42.389Z,17.33
2022-10-12T10:58:45.090Z,19.87
2022-10-12T11:01:54.650Z,18.43
2022-10-12T11:05:00.132Z,15.83
2022-10-12T11:08:03.378Z,15.17
2022-10-12T11:11:11.195Z,14.20
2022-10-12T11:14:16.291Z,14.30
2022-10-12T11:17:17.939Z,18.90
2022-10-12T11:20:30.941Z,13.57
2022-10-12T11:23:58.804Z,17.87
2022-10-12T11:27:06.897Z,18.03
2022-10-12T11:30:16.650Z,16.20
2022-10-12T11:33:21.907Z,13.47
2022-10-12T11:36:24.771Z,16.23
2022-10-12T11:39:38.387Z,12.93
2022-10-12T11:42:43.589Z,18.70
2022-10-12T11:45:49.573Z,19.03
2022-10-12T11:48:57.195Z,13.43
2022-10-12T11:52:01.872Z,14.63
2022-10-12T11:55:22.718Z,14.60
2022-10-12T11:58:42.363Z,16.03
2022-10-12T12:02:17.674Z,12.53
2022-10-12T12:05:19.404Z,13.50
2022-10-12T12:08:40.539Z,13.83
2022-10-12T12:11:42.228Z,14.07
2022-10-12T12:14:48.877Z,14.03
2022-10-12T12:18:11.385Z,13.97
2022-10-12T12:21:13.338Z,13.83
2022-10-12T12:24:16.721Z,12.87
2022-10-12T12:27:38.041Z,14.00
2022-10-12T12:30:40.663Z,10.07
2022-10-12T12:33:43.513Z,11.90
2022-10-12T12:36:46.443Z,12.67
2022-10-12T12:39:56.010Z,11.20
2022-10-12T12:43:16.125Z,18.90
2022-10-12T12:46:18.071Z,15.97
2022-10-12T12:49:27.524Z,17.17
2022-10-12T12:52:33.675Z,12.70
2022-10-12T12:55:40.645Z,11.17
2022-10-12T12:58:55.654Z,9.73
2022-10-12T13:02:15.696Z,15.20
2022-10-12T13:05:34.870Z,8.00
2022-10-12T13:08:36.500Z,7.97
2022-10-12T13:11:44.087Z,7.20
2022-10-12T13:15:04.342Z,10.27
2022-10-12T13:18:18.453Z,12.00
2022-10-12T13:21:45.980Z,8.50
2022-10-12T13:24:50.381Z,9.07
2022-10-12T13:27:53.045Z,9.53
2022-10-12T13:31:15.841Z,9.37
2022-10-12T13:34:36.481Z,11.70
2022-10-12T13:37:38.330Z,7.67
2022-10-12T13:40:42.096Z,10.03
2022-10-12T13:43:53.041Z,10.73
2022-10-12T13:47:04.414Z,10.37
2022-10-12T13:50:26.897Z,14.77
2022-10-12T13:53:36.965Z,15.53
2022-10-12T13:56:38.743Z,15.13
2022-10-12T13:59:40.386Z,10.33
2022-10-12T14:02:43.393Z,10.53
2022-10-12T14:05:45.849Z,11.33
2022-10-12T14:08:47.602Z,10.83
2022-10-12T14:11:50.007Z,14.07
2022-10-12T14:14:51.916Z,11.90
2022-10-12T14:17:54.935Z,10.83
2022-10-12T14:21:17.849Z,10.33
2022-10-12T14:24:19.970Z,10.57
2022-10-12T14:27:23.831Z,11.97
2022-10-12T14:30:29.440Z,9.77
2022-10-12T14:33:32.793Z,9.83
2022-10-12T14:36:34.393Z,13.57
2022-10-12T14:39:36.159Z,9.57
2022-10-12T14:42:37.779Z,14.27
2022-10-12T14:45:39.427Z,11.60
2022-10-12T14:48:41.013Z,17.63
2022-10-12T14:51:42.846Z,12.33
2022-10-12T14:54:44.479Z,14.70
2022-10-12T14:57:46.580Z,11.80
2022-10-12T15:00:48.706Z,10.27
2022-10-12T15:03:50.418Z,14.60
2022-10-12T15:06:51.981Z,12.37
2022-10-12T15:09:53.726Z,10.93
2022-10-12T15:12:55.325Z,11.97
2022-10-12T15:15:57.104Z,17.40
2022-10-12T15:18:58.848Z,15.53
2022-10-12T15:22:00.466Z,11.70
2022-10-12T15:25:02.055Z,14.93
2022-10-12T15:30:58.063Z,15.00
2022-10-12T15:34:01.707Z,19.20
2022-10-12T15:37:07.986Z,18.43
2022-10-12T15:40:11.425Z,17.87
2022-10-12T15:43:13.199Z,19.83
2022-10-12T15:46:15.023Z,24.80
2022-10-12T15:49:19.796Z,22.20
2022-10-12T15:52:21.727Z,13.00
2022-10-12T15:55:25.132Z,13.87
2022-10-12T15:58:26.720Z,16.30
2022-10-12T16:01:29.343Z,14.97
2022-10-12T16:04:30.997Z,16.20
2022-10-12T16:07:32.643Z,16.50
2022-10-12T16:10:36.878Z,18.80
2022-10-12T16:13:45.087Z,26.07
2022-10-12T16:16:49.662Z,23.37
2022-10-12T16:19:51.221Z,20.30
2022-10-12T16:22:53.019Z,17.10
2022-10-12T16:25:55.357Z,19.47
2022-10-12T16:28:57.089Z,17.90
2022-10-12T16:31:58.797Z,22.27
2022-10-12T16:35:00.827Z,21.27
2022-10-12T16:38:02.476Z,24.93
2022-10-12T16:41:14.419Z,24.57
2022-10-12T16:44:18.487Z,25.97
2022-10-12T16:47:25.343Z,27.33
2022-10-12T16:50:26.961Z,33.17
2022-10-12T16:53:28.634Z,24.47
2022-10-12T16:56:30.255Z,25.27
2022-10-12T16:59:31.988Z,24.93
2022-10-12T17:02:33.651Z,25.13
2022-10-12T17:05:35.273Z,26.27
2022-10-12T17:08:39.078Z,22.83
2022-10-12T17:11:41.230Z,24.50
2022-10-12T17:14:42.896Z,21.43
2022-10-12T17:17:44.519Z,22.10
2022-10-12T17:20:48.269Z,23.63
2022-10-12T17:23:56.690Z,21.43
2022-10-12T17:26:58.383Z,23.87
2022-10-12T17:30:00.173Z,45.57
2022-10-12T17:33:01.856Z,26.60
2022-10-12T17:36:08.762Z,22.10
2022-10-12T17:39:13.502Z,25.60
2022-10-12T17:42:18.812Z,19.40
2022-10-12T17:45:20.725Z,20.20
2022-10-12T17:48:22.806Z,21.87
2022-10-12T17:51:25.268Z,17.33
2022-10-12T17:54:27.230Z,20.43
2022-10-12T17:57:28.827Z,18.60
2022-10-12T18:00:31.356Z,17.40
2022-10-12T18:03:33.474Z,16.33
2022-10-12T18:06:36.308Z,16.57
2022-10-12T18:09:38.391Z,25.03
2022-10-12T18:12:41.686Z,16.47
2022-10-12T18:15:43.912Z,15.47
2022-10-12T18:18:45.708Z,13.80
2022-10-12T18:21:47.437Z,15.40
2022-10-12T18:24:49.145Z,13.57
2022-10-12T18:27:51.688Z,14.53
2022-10-12T18:30:53.500Z,19.97
2022-10-12T18:33:56.016Z,22.73
2022-10-12T18:36:57.622Z,19.57
2022-10-12T18:39:59.211Z,16.10
2022-10-12T18:43:00.848Z,16.90
2022-10-12T18:46:09.659Z,16.60
2022-10-12T18:49:13.898Z,17.63
2022-10-12T18:52:15.842Z,16.87
2022-10-12T18:55:17.687Z,15.47
2022-10-12T18:58:19.364Z,22.33
2022-10-12T19:01:24.373Z,17.87
2022-10-12T19:04:26.261Z,16.70
2022-10-12T19:07:27.954Z,14.77
2022-10-12T19:10:29.542Z,14.03
2022-10-12T19:13:31.162Z,14.27
2022-10-12T19:16:33.687Z,13.03
2022-10-12T19:19:35.558Z,13.13
2022-10-12T19:22:37.646Z,14.10
2022-10-12T19:25:40.008Z,17.90
2022-10-12T19:28:42.039Z,16.13
2022-10-12T19:31:45.699Z,13.10
2022-10-12T19:34:50.430Z,12.53
2022-10-12T19:37:53.950Z,17.37
2022-10-12T19:40:55.577Z,14.27
2022-10-12T19:43:57.899Z,19.40
2022-10-12T19:47:00.013Z,19.50
2022-10-12T19:50:01.779Z,15.30
2022-10-12T19:53:03.483Z,20.00
2022-10-12T19:56:15.731Z,31.80
2022-10-12T19:59:17.686Z,45.87
2022-10-12T20:02:20.127Z,52.57
2022-10-12T20:05:21.989Z,36.23
2022-10-12T20:08:24.131Z,26.67
2022-10-12T20:11:26.112Z,23.70
2022-10-12T20:14:29.948Z,24.37
2022-10-12T20:17:31.551Z,18.13
2022-10-12T20:20:33.536Z,23.50
2022-10-12T20:23:35.879Z,18.87
2022-10-12T20:26:39.076Z,20.23
2022-10-12T20:29:41.429Z,19.20
2022-10-12T20:32:42.986Z,18.47
2022-10-12T20:35:48.570Z,16.33
2022-10-12T20:38:50.238Z,15.87
2022-10-12T20:41:51.799Z,21.57
2022-10-12T20:44:53.380Z,12.47
2022-10-12T20:47:55.024Z,24.53
2022-10-12T20:50:56.803Z,15.50
2022-10-12T20:54:00.467Z,20.60
2022-10-12T20:57:03.156Z,19.53
2022-10-12T21:00:05.815Z,16.87
2022-10-12T21:03:07.468Z,21.70
2022-10-12T21:06:10.775Z,18.10
2022-10-12T21:09:13.993Z,19.60
2022-10-12T21:12:15.826Z,18.73
2022-10-12T21:15:17.715Z,21.37
2022-10-12T21:18:19.792Z,19.10
2022-10-12T21:21:21.464Z,18.10
2022-10-12T21:24:23.088Z,22.17
2022-10-12T21:27:24.725Z,17.30
2022-10-12T21:30:26.701Z,16.93
2022-10-12T21:33:28.493Z,15.53
2022-10-12T21:36:30.606Z,20.77
2022-10-12T21:39:32.241Z,19.73
2022-10-12T21:42:33.838Z,17.43
2022-10-12T21:45:35.417Z,16.80
2022-10-12T21:48:37.222Z,21.47
2022-10-12T21:51:40.327Z,14.93
2022-10-12T21:54:41.963Z,14.10
2022-10-12T21:57:43.710Z,16.30
2022-10-12T22:00:45.398Z,18.03
2022-10-12T22:03:48.450Z,15.57
2022-10-12T22:06:50.155Z,15.57
2022-10-12T22:09:51.821Z,15.90
2022-10-12T22:12:53.502Z,12.43
2022-10-12T22:16:02.734Z,12.97
2022-10-12T22:19:05.591Z,17.23
2022-10-12T22:22:07.137Z,15.47
2022-10-12T22:25:08.824Z,18.00
2022-10-12T22:28:12.219Z,14.90
2022-10-12T22:31:17.230Z,13.20
2022-10-12T22:34:18.864Z,23.80
2022-10-12T22:37:20.906Z,19.27
2022-10-12T22:40:22.483Z,16.30
2022-10-12T22:43:24.860Z,21.30
2022-10-12T22:46:26.845Z,19.50
2022-10-12T22:49:28.504Z,23.27
2022-10-12T22:52:31.589Z,21.23
2022-10-12T22:55:33.146Z,14.63
2022-10-12T22:58:35.568Z,12.17
2022-10-12T23:01:37.202Z,12.97
2022-10-12T23:04:38.720Z,11.53
2022-10-12T23:07:40.391Z,11.17
2022-10-12T23:10:42.090Z,12.37
2022-10-12T23:13:44.107Z,11.20
2022-10-12T23:16:45.749Z,10.73
2022-10-12T23:19:47.329Z,13.83
2022-10-12T23:22:48.878Z,11.77
2022-10-12T23:25:50.709Z,11.43
2022-10-12T23:28:52.906Z,13.20
2022-10-12T23:31:54.500Z,12.87
2022-10-12T23:34:56.282Z,17.00
2022-10-12T23:37:57.860Z,15.07
2022-10-12T23:40:59.578Z,14.77
2022-10-12T23:44:01.188Z,14.33
2022-10-12T23:47:02.752Z,13.03
2022-10-12T23:50:04.430Z,15.20
2022-10-12T23:53:06.696Z,18.30
2022-10-12T23:56:08.357Z,20.93
2022-10-12T23:59:09.976Z,13.13
